createdAt,value
2017-11-18T00:01:10.166Z,7.87
2017-11-18T00:03:45.212Z,7.82
2017-11-18T00:06:18.616Z,7.86
2017-11-18T00:08:51.359Z,7.83
2017-11-18T00:11:24.478Z,7.73
2017-11-18T00:14:03.542Z,7.54
2017-11-18T00:16:40.544Z,7.66
2017-11-18T00:19:12.656Z,7.56
2017-11-18T00:21:47.735Z,7.74
2017-11-18T00:24:19.840Z,7.60
2017-11-18T00:26:51.870Z,7.83
2017-11-18T00:29:24.331Z,7.87
2017-11-18T00:34:55.160Z,7.87
2017-11-18T00:37:27.560Z,7.88
2017-11-18T00:40:00.258Z,7.91
2017-11-18T00:42:42.791Z,7.97
2017-11-18T00:45:19.073Z,8.06
2017-11-18T00:47:51.967Z,8.12
2017-11-18T00:50:24.185Z,8.02
2017-11-18T00:52:57.424Z,7.94
2017-11-18T00:55:29.990Z,7.86
2017-11-18T00:58:04.110Z,7.85
2017-11-18T01:00:37.490Z,7.87
2017-11-18T01:03:09.455Z,7.89
2017-11-18T01:05:40.012Z,7.89
2017-11-18T01:08:12.983Z,7.76
2017-11-18T01:10:46.280Z,7.71
2017-11-18T01:13:18.671Z,7.72
2017-11-18T01:15:50.871Z,7.80
2017-11-18T01:18:22.659Z,7.94
2017-11-18T01:20:54.874Z,7.99
2017-11-18T01:23:26.958Z,8.03
2017-11-18T01:25:58.954Z,7.95
2017-11-18T01:28:30.968Z,7.84
2017-11-18T01:31:04.760Z,7.69
2017-11-18T01:33:35.190Z,7.70
2017-11-18T01:36:06.842Z,7.80
2017-11-18T01:38:38.764Z,7.80
2017-11-18T01:41:12.058Z,7.89
2017-11-18T01:43:45.085Z,7.99
2017-11-18T01:46:17.358Z,7.76
2017-11-18T01:48:50.157Z,7.72
2017-11-18T01:51:22.196Z,7.84
2017-11-18T01:56:43.374Z,7.76
2017-11-18T01:59:15.162Z,7.74
2017-11-18T02:01:49.261Z,7.71
2017-11-18T02:04:22.057Z,7.42
2017-11-18T02:06:54.360Z,7.40
2017-11-18T02:09:26.966Z,7.41
2017-11-18T02:14:36.069Z,7.61
2017-11-18T02:17:10.817Z,7.53
2017-11-18T02:19:42.588Z,7.27
2017-11-18T02:22:14.701Z,7.43
2017-11-18T02:24:47.002Z,7.48
2017-11-18T02:27:18.910Z,7.60
2017-11-18T02:29:50.704Z,7.56
2017-11-18T02:32:26.614Z,7.50
2017-11-18T02:34:59.825Z,7.39
2017-11-18T02:37:31.915Z,7.34
2017-11-18T02:40:08.221Z,7.18
2017-11-18T02:42:42.080Z,7.22
2017-11-18T02:45:18.035Z,7.13
2017-11-18T02:47:50.840Z,7.24
2017-11-18T02:50:23.034Z,7.01
2017-11-18T02:52:55.035Z,7.00
2017-11-18T02:55:27.149Z,7.06
2017-11-18T02:57:58.848Z,7.16
2017-11-18T03:00:32.941Z,7.13
2017-11-18T03:03:08.937Z,7.01
2017-11-18T03:05:43.231Z,7.05
2017-11-18T03:08:15.940Z,7.05
2017-11-18T03:10:48.106Z,7.17
2017-11-18T03:13:20.279Z,7.11
2017-11-18T03:15:53.739Z,7.19
2017-11-18T03:18:24.336Z,7.24
2017-11-18T03:20:55.437Z,7.27
2017-11-18T03:23:28.049Z,7.28
2017-11-18T03:26:01.443Z,7.20
2017-11-18T03:28:34.082Z,7.24
2017-11-18T03:31:07.228Z,7.17
2017-11-18T03:33:39.233Z,6.93
2017-11-18T03:36:13.469Z,7.00
2017-11-18T03:38:46.144Z,6.74
2017-11-18T03:41:19.331Z,6.85
2017-11-18T03:43:51.447Z,6.81
2017-11-18T03:46:24.432Z,6.76
2017-11-18T03:48:56.434Z,7.07
2017-11-18T03:51:29.039Z,7.08
2017-11-18T03:54:01.937Z,7.25
2017-11-18T03:56:33.730Z,7.42
2017-11-18T03:59:05.535Z,7.40
2017-11-18T04:01:38.149Z,7.32
2017-11-18T04:04:11.044Z,6.82
2017-11-18T04:06:43.560Z,6.96
2017-11-18T04:09:15.585Z,6.57
2017-11-18T04:11:47.467Z,6.56
2017-11-18T04:14:25.663Z,6.53
2017-11-18T04:16:58.366Z,6.36
2017-11-18T04:19:30.171Z,6.41
2017-11-18T04:24:44.074Z,7.20
2017-11-18T04:27:15.767Z,6.99
2017-11-18T04:29:48.682Z,7.07
2017-11-18T04:32:21.181Z,6.89
2017-11-18T04:34:53.090Z,7.07
2017-11-18T04:37:32.369Z,6.84
2017-11-18T04:40:11.494Z,7.05
2017-11-18T04:42:44.565Z,6.72
2017-11-18T04:45:19.285Z,6.78
2017-11-18T04:47:51.369Z,6.74
2017-11-18T04:50:23.580Z,7.00
2017-11-18T04:52:55.877Z,6.90
2017-11-18T04:55:28.775Z,6.68
2017-11-18T04:58:01.277Z,6.73
2017-11-18T05:00:33.371Z,6.71
2017-11-18T05:03:06.079Z,6.97
2017-11-18T05:05:39.696Z,6.91
2017-11-18T05:08:12.578Z,6.86
2017-11-18T05:10:45.780Z,7.16
2017-11-18T05:13:17.910Z,7.32
2017-11-18T05:15:50.069Z,7.50
2017-11-18T05:18:21.864Z,7.18
2017-11-18T05:20:53.958Z,6.88
2017-11-18T05:23:25.856Z,6.43
2017-11-18T05:25:57.659Z,7.01
2017-11-18T05:28:29.793Z,6.89
2017-11-18T05:31:03.360Z,6.74
2017-11-18T05:33:37.173Z,6.54
2017-11-18T05:36:11.109Z,6.68
2017-11-18T05:38:42.978Z,6.51
2017-11-18T05:41:16.484Z,6.29
2017-11-18T05:43:49.108Z,6.64
2017-11-18T05:46:21.589Z,6.95
2017-11-18T05:49:02.120Z,7.17
2017-11-18T05:51:34.597Z,7.25
2017-11-18T05:54:06.708Z,7.35
2017-11-18T05:56:39.102Z,7.49
2017-11-18T05:59:11.417Z,7.46
2017-11-18T06:01:44.011Z,7.73
2017-11-18T06:04:15.923Z,7.93
2017-11-18T06:06:48.514Z,8.01
2017-11-18T06:09:20.516Z,8.10
2017-11-18T06:11:52.224Z,8.05
2017-11-18T06:14:24.018Z,8.24
2017-11-18T06:16:55.811Z,7.98
2017-11-18T06:19:31.107Z,8.03
2017-11-18T06:22:03.502Z,8.05
2017-11-18T06:24:35.210Z,7.98
2017-11-18T06:27:07.602Z,8.04
2017-11-18T06:29:42.118Z,8.00
2017-11-18T06:32:20.903Z,8.11
2017-11-18T06:34:53.602Z,8.10
2017-11-18T06:37:27.926Z,8.19
2017-11-18T06:40:03.313Z,8.06
2017-11-18T06:42:44.035Z,8.01
2017-11-18T06:45:23.099Z,8.01
2017-11-18T06:48:00.209Z,8.04
2017-11-18T06:50:32.806Z,8.22
2017-11-18T06:53:04.618Z,8.33
2017-11-18T06:55:37.022Z,8.34
2017-11-18T06:58:09.305Z,8.51
2017-11-18T07:00:42.727Z,8.61
2017-11-18T07:03:15.143Z,8.55
2017-11-18T07:05:47.594Z,8.55
2017-11-18T07:11:17.193Z,8.40
2017-11-18T07:13:49.787Z,8.60
2017-11-18T07:16:22.393Z,8.45
2017-11-18T07:18:54.786Z,8.52
2017-11-18T07:21:27.095Z,8.56
2017-11-18T07:23:59.907Z,8.52
2017-11-18T07:26:31.729Z,8.54
2017-11-18T07:29:08.722Z,8.39
2017-11-18T07:31:49.235Z,8.28
2017-11-18T07:34:21.645Z,8.44
2017-11-18T07:36:53.648Z,8.35
2017-11-18T07:39:25.759Z,8.32
2017-11-18T07:41:57.975Z,8.33
2017-11-18T07:44:31.131Z,8.44
2017-11-18T07:47:05.271Z,8.53
2017-11-18T07:49:37.857Z,8.59
2017-11-18T07:52:18.752Z,8.62
2017-11-18T07:54:50.677Z,8.57
2017-11-18T07:57:29.653Z,8.53
2017-11-18T08:00:05.660Z,8.69
2017-11-18T08:02:41.654Z,8.69
2017-11-18T08:05:14.650Z,8.70
2017-11-18T08:07:46.445Z,8.67
2017-11-18T08:10:18.356Z,8.54
2017-11-18T08:12:50.539Z,8.57
2017-11-18T08:15:24.089Z,8.55
2017-11-18T08:17:56.455Z,8.60
2017-11-18T08:20:35.129Z,8.73
2017-11-18T08:23:09.138Z,8.75
2017-11-18T08:25:43.960Z,8.66
2017-11-18T08:28:19.725Z,8.73
2017-11-18T08:31:02.701Z,8.71
2017-11-18T08:33:45.391Z,8.62
2017-11-18T08:36:28.802Z,8.57
2017-11-18T08:39:08.613Z,8.64
2017-11-18T08:41:51.254Z,8.41
2017-11-18T08:44:31.395Z,8.28
2017-11-18T08:47:15.583Z,8.32
2017-11-18T08:49:55.571Z,8.26
2017-11-18T08:52:47.100Z,8.53
2017-11-18T08:55:27.668Z,8.49
2017-11-18T08:58:09.910Z,8.63
2017-11-18T09:00:50.670Z,8.51
2017-11-18T09:03:24.523Z,8.46
2017-11-18T09:05:56.423Z,8.53
2017-11-18T09:08:30.707Z,8.65
2017-11-18T09:11:03.999Z,8.66
2017-11-18T09:13:37.188Z,8.79
2017-11-18T09:16:16.299Z,8.87
2017-11-18T09:18:54.480Z,8.62
2017-11-18T09:21:29.491Z,8.50
2017-11-18T09:27:05.558Z,8.75
2017-11-18T09:29:38.087Z,8.75
2017-11-18T09:32:12.582Z,8.63
2017-11-18T09:34:44.788Z,8.73
2017-11-18T09:37:21.088Z,8.68
2017-11-18T09:39:52.705Z,8.75
2017-11-18T09:42:24.292Z,8.51
2017-11-18T09:44:57.883Z,8.61
2017-11-18T09:47:31.406Z,8.74
2017-11-18T09:50:04.777Z,8.81
2017-11-18T09:52:37.578Z,8.98
2017-11-18T09:55:10.179Z,8.93
2017-11-18T09:57:50.206Z,8.75
2017-11-18T10:00:23.395Z,8.93
2017-11-18T10:02:55.704Z,8.89
2017-11-18T10:05:30.075Z,8.71
2017-11-18T10:08:24.535Z,8.77
2017-11-18T10:10:58.370Z,8.78
2017-11-18T10:13:31.183Z,8.89
2017-11-18T10:16:06.315Z,8.89
2017-11-18T10:18:38.487Z,8.95
2017-11-18T10:21:11.905Z,9.12
2017-11-18T10:23:44.382Z,9.00
2017-11-18T10:26:32.638Z,9.10
2017-11-18T10:29:07.691Z,9.12
2017-11-18T10:34:35.072Z,9.21
2017-11-18T10:37:08.987Z,9.22
2017-11-18T10:39:51.482Z,9.24
2017-11-18T10:43:11.578Z,9.13
2017-11-18T10:45:47.903Z,9.09
2017-11-18T10:48:19.883Z,9.23
2017-11-18T10:50:55.412Z,9.38
2017-11-18T10:53:29.812Z,9.24
2017-11-18T10:56:06.211Z,9.25
2017-11-18T10:58:44.843Z,9.24
2017-11-18T11:01:20.521Z,9.35
2017-11-18T11:03:53.140Z,9.36
2017-11-18T11:06:23.669Z,9.48
2017-11-18T11:09:00.235Z,9.41
2017-11-18T11:11:32.848Z,9.42
2017-11-18T11:14:03.894Z,9.45
2017-11-18T11:16:40.624Z,9.60
2017-11-18T11:19:19.655Z,9.65
2017-11-18T11:21:54.255Z,9.66
2017-11-18T11:24:33.846Z,9.53
2017-11-18T11:27:07.847Z,9.62
2017-11-18T11:29:42.824Z,9.70
2017-11-18T11:32:26.950Z,9.68
2017-11-18T11:35:02.936Z,9.68
2017-11-18T11:37:38.253Z,9.62
2017-11-18T11:40:20.751Z,9.64
2017-11-18T11:42:59.260Z,9.75
2017-11-18T11:45:36.195Z,9.68
2017-11-18T11:48:10.046Z,9.68
2017-11-18T11:50:43.143Z,9.75
2017-11-18T11:53:16.817Z,9.96
2017-11-18T11:55:51.258Z,10.07
2017-11-18T11:58:31.223Z,9.99
2017-11-18T12:01:07.079Z,9.88
2017-11-18T12:03:40.777Z,9.98
2017-11-18T12:06:13.697Z,9.95
2017-11-18T12:08:46.664Z,9.96
2017-11-18T12:11:18.497Z,10.05
2017-11-18T12:13:50.700Z,10.07
2017-11-18T12:16:24.985Z,10.13
2017-11-18T12:19:03.808Z,10.18
2017-11-18T12:21:36.808Z,10.14
2017-11-18T12:24:15.647Z,10.14
2017-11-18T12:26:48.624Z,10.29
2017-11-18T12:29:23.534Z,10.32
2017-11-18T12:32:00.611Z,10.14
2017-11-18T12:34:39.160Z,10.06
2017-11-18T12:37:27.492Z,10.01
2017-11-18T12:40:04.475Z,9.99
2017-11-18T12:42:36.876Z,9.99
2017-11-18T12:45:09.974Z,10.15
2017-11-18T12:47:55.338Z,10.34
2017-11-18T12:50:31.205Z,10.37
2017-11-18T12:53:04.474Z,10.34
2017-11-18T12:55:40.269Z,10.17
2017-11-18T12:58:14.988Z,10.32
2017-11-18T13:00:48.197Z,10.23
2017-11-18T13:03:22.674Z,10.49
2017-11-18T13:05:55.978Z,10.57
2017-11-18T13:08:29.581Z,10.90
2017-11-18T13:11:02.666Z,11.20
2017-11-18T13:13:38.535Z,11.41
2017-11-18T13:18:50.559Z,11.74
2017-11-18T13:21:22.393Z,11.82
2017-11-18T13:23:57.131Z,11.94
2017-11-18T13:26:32.169Z,11.94
2017-11-18T13:29:06.393Z,11.76
2017-11-18T13:31:46.470Z,11.56
2017-11-18T13:34:18.408Z,11.45
2017-11-18T13:36:51.277Z,11.73
2017-11-18T13:39:27.777Z,11.42
2017-11-18T13:42:21.129Z,11.08
2017-11-18T13:44:55.709Z,10.92
2017-11-18T13:47:28.221Z,10.94
2017-11-18T13:50:00.794Z,11.08
2017-11-18T13:52:34.294Z,10.94
2017-11-18T13:55:11.394Z,10.91
2017-11-18T13:57:49.308Z,10.86
2017-11-18T14:00:34.501Z,10.65
2017-11-18T14:03:16.233Z,10.54
2017-11-18T14:05:49.935Z,10.59
2017-11-18T14:08:22.566Z,10.49
2017-11-18T14:10:54.697Z,10.41
2017-11-18T14:13:29.809Z,10.17
2017-11-18T14:16:03.667Z,10.22
2017-11-18T14:18:35.692Z,10.34
2017-11-18T14:21:10.951Z,10.18
2017-11-18T14:23:42.574Z,10.08
2017-11-18T14:26:13.394Z,10.12
2017-11-18T14:28:45.290Z,10.17
2017-11-18T14:31:19.829Z,10.21
2017-11-18T14:34:00.210Z,10.21
2017-11-18T14:36:33.792Z,10.18
2017-11-18T14:39:09.566Z,9.98
2017-11-18T14:41:45.011Z,9.90
2017-11-18T14:44:16.792Z,9.83
2017-11-18T14:46:51.905Z,9.92
2017-11-18T14:49:28.641Z,9.98
2017-11-18T14:52:01.902Z,10.04
2017-11-18T14:54:36.797Z,9.88
2017-11-18T14:57:10.884Z,9.94
2017-11-18T14:59:57.882Z,9.94
2017-11-18T15:02:31.812Z,9.89
2017-11-18T15:05:07.092Z,10.02
2017-11-18T15:07:41.993Z,10.00
2017-11-18T15:10:17.412Z,9.89
2017-11-18T15:12:56.365Z,9.67
2017-11-18T15:15:28.640Z,9.91
2017-11-18T15:18:01.620Z,10.00
2017-11-18T15:20:39.484Z,9.79
2017-11-18T15:23:12.629Z,9.75
2017-11-18T15:25:50.501Z,9.85
2017-11-18T15:28:27.633Z,9.86
2017-11-18T15:31:04.844Z,9.84
2017-11-18T15:33:37.685Z,9.68
2017-11-18T15:36:16.552Z,9.71
2017-11-18T15:38:47.866Z,9.76
2017-11-18T15:41:20.833Z,9.74
2017-11-18T15:43:57.696Z,9.80
2017-11-18T15:46:30.547Z,9.77
2017-11-18T15:49:06.365Z,9.83
2017-11-18T15:51:39.554Z,9.96
2017-11-18T15:54:16.449Z,9.89
2017-11-18T15:56:49.987Z,10.02
2017-11-18T15:59:29.143Z,9.87
2017-11-18T16:02:01.840Z,9.92
2017-11-18T16:04:36.235Z,9.98
2017-11-18T16:07:34.734Z,9.90
2017-11-18T16:10:08.028Z,9.97
2017-11-18T16:12:43.429Z,9.99
2017-11-18T16:15:21.824Z,10.04
2017-11-18T16:17:54.718Z,9.98
2017-11-18T16:20:27.533Z,9.87
2017-11-18T16:23:04.218Z,9.74
2017-11-18T16:25:42.918Z,9.90
2017-11-18T16:28:17.817Z,9.85
2017-11-18T16:30:55.418Z,9.77
2017-11-18T16:33:28.460Z,9.74
2017-11-18T16:36:04.969Z,9.76
2017-11-18T16:38:38.487Z,9.60
2017-11-18T16:43:40.624Z,9.61
2017-11-18T16:46:14.697Z,9.60
2017-11-18T16:48:45.756Z,9.65
2017-11-18T16:51:17.579Z,9.63
2017-11-18T16:53:49.144Z,9.62
2017-11-18T16:56:25.799Z,9.66
2017-11-18T16:58:58.221Z,9.71
2017-11-18T17:01:30.682Z,9.71
2017-11-18T17:04:05.365Z,9.81
2017-11-18T17:06:38.084Z,9.78
2017-11-18T17:09:09.072Z,9.76
2017-11-18T17:11:42.059Z,9.83
2017-11-18T17:14:17.283Z,9.74
2017-11-18T17:16:59.661Z,9.74
2017-11-18T17:19:32.197Z,9.80
2017-11-18T17:22:03.693Z,9.84
2017-11-18T17:24:46.512Z,9.85
2017-11-18T17:30:07.757Z,9.85
2017-11-18T17:32:45.084Z,9.93
2017-11-18T17:35:20.081Z,9.98
2017-11-18T17:37:55.073Z,10.09
2017-11-18T17:40:30.656Z,10.04
2017-11-18T17:43:08.310Z,10.12
2017-11-18T17:45:41.075Z,10.11
2017-11-18T17:50:54.067Z,10.16
2017-11-18T17:53:24.827Z,10.27
2017-11-18T17:58:47.264Z,10.33
2017-11-18T18:01:19.413Z,10.41
2017-11-18T18:03:52.244Z,10.55
2017-11-18T18:06:28.927Z,10.48
2017-11-18T18:09:03.843Z,10.29
2017-11-18T18:11:37.598Z,9.92
2017-11-18T18:14:10.633Z,9.67
2017-11-18T18:16:42.551Z,9.74
2017-11-18T18:19:28.452Z,9.80
2017-11-18T18:22:00.702Z,10.04
2017-11-18T18:24:32.826Z,10.14
2017-11-18T18:27:03.651Z,10.17
2017-11-18T18:29:35.156Z,10.20
2017-11-18T18:32:06.171Z,10.00
2017-11-18T18:34:37.859Z,9.91
2017-11-18T18:37:12.303Z,9.69
2017-11-18T18:39:48.192Z,9.63
2017-11-18T18:42:20.506Z,9.39
2017-11-18T18:44:55.472Z,9.48
2017-11-18T18:47:26.898Z,9.48
2017-11-18T18:50:08.725Z,9.57
2017-11-18T18:52:39.478Z,9.45
2017-11-18T18:55:15.370Z,9.31
2017-11-18T18:57:49.167Z,9.42
2017-11-18T19:00:29.654Z,9.30
2017-11-18T19:03:02.821Z,9.47
2017-11-18T19:05:33.663Z,9.57
2017-11-18T19:08:05.267Z,9.60
2017-11-18T19:10:35.799Z,9.62
2017-11-18T19:13:07.825Z,9.60
2017-11-18T19:15:42.129Z,9.61
2017-11-18T19:18:20.265Z,9.48
2017-11-18T19:20:53.194Z,9.73
2017-11-18T19:23:27.377Z,9.69
2017-11-18T19:26:03.708Z,9.62
2017-11-18T19:28:36.553Z,9.61
2017-11-18T19:31:07.240Z,9.83
2017-11-18T19:33:47.370Z,9.92
2017-11-18T19:36:23.310Z,9.80
2017-11-18T19:38:56.653Z,9.91
2017-11-18T19:41:32.561Z,9.83
2017-11-18T19:44:10.838Z,9.91
2017-11-18T19:46:48.969Z,9.94
2017-11-18T19:49:27.592Z,10.04
2017-11-18T19:52:12.745Z,9.93
2017-11-18T19:54:54.611Z,9.92
2017-11-18T19:57:31.258Z,10.08
2017-11-18T20:00:12.635Z,10.11
2017-11-18T20:04:06.838Z,10.26
2017-11-18T20:06:44.333Z,10.24
2017-11-18T20:09:23.266Z,10.05
2017-11-18T20:12:07.509Z,10.00
2017-11-18T20:14:39.855Z,9.97
2017-11-18T20:17:15.627Z,10.13
2017-11-18T20:20:00.484Z,10.11
2017-11-18T20:22:34.126Z,10.16
2017-11-18T20:25:08.304Z,10.13
2017-11-18T20:27:47.560Z,10.13
2017-11-18T20:30:20.951Z,10.10
2017-11-18T20:32:57.507Z,10.09
2017-11-18T20:35:44.890Z,10.00
2017-11-18T20:38:21.328Z,10.06
2017-11-18T20:40:58.021Z,10.07
2017-11-18T20:43:36.484Z,10.08
2017-11-18T20:46:12.396Z,10.04
2017-11-18T20:48:54.515Z,9.95
2017-11-18T20:51:30.068Z,9.99
2017-11-18T20:54:10.362Z,10.13
2017-11-18T20:56:49.180Z,10.24
2017-11-18T20:59:22.169Z,10.19
2017-11-18T21:01:55.196Z,10.13
2017-11-18T21:04:27.901Z,10.23
2017-11-18T21:07:08.983Z,10.15
2017-11-18T21:09:49.004Z,10.16
2017-11-18T21:12:23.827Z,10.20
2017-11-18T21:14:57.911Z,10.17
2017-11-18T21:17:32.773Z,10.35
2017-11-18T21:20:07.965Z,10.34
2017-11-18T21:22:42.737Z,10.39
2017-11-18T21:25:20.177Z,10.48
2017-11-18T21:27:55.172Z,10.56
2017-11-18T21:30:29.823Z,10.68
2017-11-18T21:33:15.526Z,10.72
2017-11-18T21:35:54.230Z,10.77
2017-11-18T21:38:28.923Z,10.81
2017-11-18T21:41:08.820Z,10.83
2017-11-18T21:43:41.847Z,10.78
2017-11-18T21:46:20.644Z,10.54
2017-11-18T21:48:53.020Z,10.49
2017-11-18T21:51:26.452Z,10.55
2017-11-18T21:54:01.815Z,10.57
2017-11-18T21:56:35.830Z,10.47
2017-11-18T21:59:11.730Z,10.42
2017-11-18T22:01:49.312Z,10.40
2017-11-18T22:04:32.233Z,10.48
2017-11-18T22:07:05.125Z,10.51
2017-11-18T22:09:39.338Z,10.33
2017-11-18T22:12:11.154Z,10.19
2017-11-18T22:14:43.857Z,10.29
2017-11-18T22:17:17.583Z,10.36
2017-11-18T22:19:49.608Z,10.43
2017-11-18T22:22:25.868Z,10.42
2017-11-18T22:25:01.002Z,10.51
2017-11-18T22:27:33.597Z,10.65
2017-11-18T22:30:14.543Z,10.68
2017-11-18T22:32:49.072Z,10.54
2017-11-18T22:35:24.774Z,10.44
2017-11-18T22:40:39.520Z,10.33
2017-11-18T22:43:11.251Z,10.26
2017-11-18T22:45:54.842Z,10.40
2017-11-18T22:48:39.164Z,10.34
2017-11-18T22:51:14.962Z,10.33
2017-11-18T22:53:50.671Z,10.41
2017-11-18T22:56:26.775Z,10.42
2017-11-18T22:59:04.382Z,10.31
2017-11-18T23:01:37.545Z,10.25
2017-11-18T23:04:09.549Z,10.22
2017-11-18T23:06:57.299Z,10.04
2017-11-18T23:09:30.068Z,10.21
2017-11-18T23:14:48.195Z,10.48
2017-11-18T23:17:18.694Z,10.45
2017-11-18T23:19:54.969Z,10.39
2017-11-18T23:22:26.058Z,10.37
2017-11-18T23:24:56.535Z,10.37
2017-11-18T23:27:28.349Z,10.30
2017-11-18T23:32:53.113Z,10.38
2017-11-18T23:35:26.604Z,10.33
2017-11-18T23:37:57.737Z,10.34
2017-11-18T23:40:34.946Z,10.32
2017-11-18T23:43:18.239Z,10.26
2017-11-18T23:45:53.405Z,10.17
2017-11-18T23:48:26.558Z,10.18
2017-11-18T23:51:01.239Z,10.16
2017-11-18T23:53:33.996Z,10.02
2017-11-18T23:56:06.873Z,10.03
2017-11-18T23:58:40.829Z,10.06
